sensor_id;sensor_type;location;lat;lon;timestamp;P1;durP1;ratioP1;P2;durP2;ratioP2
15624;SDS011;7912;51.376;6.126;2022-10-19T00:01:14;7.00;;;3.40;;
15624;SDS011;7912;51.376;6.126;2022-10-19T00:03:49;6.00;;;4.03;;
15624;SDS011;7912;51.376;6.126;2022-10-19T00:08:59;6.47;;;3.77;;
15624;SDS011;7912;51.376;6.126;2022-10-19T00:11:43;6.17;;;4.03;;
15624;SDS011;7912;51.376;6.126;2022-10-19T00:14:22;5.87;;;4.17;;
15624;SDS011;7912;51.376;6.126;2022-10-19T00:16:53;6.67;;;4.07;;
15624;SDS011;7912;51.376;6.126;2022-10-19T00:19:22;6.03;;;4.00;;
15624;SDS011;7912;51.376;6.126;2022-10-19T00:21:52;8.87;;;4.60;;
15624;SDS011;7912;51.376;6.126;2022-10-19T00:24:19;11.60;;;4.80;;
15624;SDS011;7912;51.376;6.126;2022-10-19T00:26:47;10.87;;;5.00;;
15624;SDS011;7912;51.376;6.126;2022-10-19T00:29:18;8.10;;;4.47;;
15624;SDS011;7912;51.376;6.126;2022-10-19T00:31:47;10.63;;;5.00;;
15624;SDS011;7912;51.376;6.126;2022-10-19T00:34:16;8.60;;;4.73;;
15624;SDS011;7912;51.376;6.126;2022-10-19T00:36:44;8.77;;;4.20;;
15624;SDS011;7912;51.376;6.126;2022-10-19T00:39:13;8.77;;;4.43;;
15624;SDS011;7912;51.376;6.126;2022-10-19T00:41:44;7.50;;;3.90;;
15624;SDS011;7912;51.376;6.126;2022-10-19T00:46:42;10.60;;;4.00;;
15624;SDS011;7912;51.376;6.126;2022-10-19T00:49:14;6.90;;;3.77;;
15624;SDS011;7912;51.376;6.126;2022-10-19T00:51:49;7.40;;;3.60;;
15624;SDS011;7912;51.376;6.126;2022-10-19T00:54:21;4.47;;;3.13;;
15624;SDS011;7912;51.376;6.126;2022-10-19T00:56:52;4.80;;;3.70;;
15624;SDS011;7912;51.376;6.126;2022-10-19T00:59:26;4.87;;;3.53;;
15624;SDS011;7912;51.376;6.126;2022-10-19T01:01:57;4.80;;;3.60;;
15624;SDS011;7912;51.376;6.126;2022-10-19T01:04:31;5.30;;;3.40;;
15624;SDS011;7912;51.376;6.126;2022-10-19T01:07:03;3.77;;;3.43;;
15624;SDS011;7912;51.376;6.126;2022-10-19T01:09:33;3.97;;;3.20;;
15624;SDS011;7912;51.376;6.126;2022-10-19T01:12:19;5.00;;;3.60;;
15624;SDS011;7912;51.376;6.126;2022-10-19T01:15:20;5.97;;;3.50;;
15624;SDS011;7912;51.376;6.126;2022-10-19T01:18:35;4.73;;;3.47;;
15624;SDS011;7912;51.376;6.126;2022-10-19T01:21:40;5.07;;;3.73;;
15624;SDS011;7912;51.376;6.126;2022-10-19T01:27:06;7.00;;;4.50;;
15624;SDS011;7912;51.376;6.126;2022-10-19T01:38:37;8.20;;;4.40;;
15624;SDS011;7912;51.376;6.126;2022-10-19T01:41:27;7.80;;;4.70;;
15624;SDS011;7912;51.376;6.126;2022-10-19T01:44:25;7.13;;;4.80;;
15624;SDS011;7912;51.376;6.126;2022-10-19T01:46:57;7.47;;;4.70;;
15624;SDS011;7912;51.376;6.126;2022-10-19T01:49:34;8.60;;;4.87;;
15624;SDS011;7912;51.376;6.126;2022-10-19T01:52:14;6.97;;;4.77;;
15624;SDS011;7912;51.376;6.126;2022-10-19T01:54:51;7.57;;;4.73;;
15624;SDS011;7912;51.376;6.126;2022-10-19T01:57:33;5.30;;;4.10;;
15624;SDS011;7912;51.376;6.126;2022-10-19T02:00:07;4.87;;;4.30;;
15624;SDS011;7912;51.376;6.126;2022-10-19T02:02:39;5.33;;;3.87;;
15624;SDS011;7912;51.376;6.126;2022-10-19T02:05:14;5.53;;;3.93;;
15624;SDS011;7912;51.376;6.126;2022-10-19T02:07:47;4.50;;;3.47;;
15624;SDS011;7912;51.376;6.126;2022-10-19T02:10:21;6.20;;;4.00;;
15624;SDS011;7912;51.376;6.126;2022-10-19T02:12:50;5.67;;;4.37;;
15624;SDS011;7912;51.376;6.126;2022-10-19T02:15:21;7.17;;;4.60;;
15624;SDS011;7912;51.376;6.126;2022-10-19T02:17:52;9.40;;;4.70;;
15624;SDS011;7912;51.376;6.126;2022-10-19T02:20:26;7.83;;;4.93;;
15624;SDS011;7912;51.376;6.126;2022-10-19T02:22:54;6.30;;;4.83;;
15624;SDS011;7912;51.376;6.126;2022-10-19T02:25:22;6.17;;;4.30;;
15624;SDS011;7912;51.376;6.126;2022-10-19T02:27:50;7.10;;;5.07;;
15624;SDS011;7912;51.376;6.126;2022-10-19T02:30:18;9.40;;;5.10;;
15624;SDS011;7912;51.376;6.126;2022-10-19T02:32:48;7.23;;;4.73;;
15624;SDS011;7912;51.376;6.126;2022-10-19T02:35:16;6.03;;;4.87;;
15624;SDS011;7912;51.376;6.126;2022-10-19T02:37:44;7.53;;;4.80;;
15624;SDS011;7912;51.376;6.126;2022-10-19T02:40:11;8.97;;;5.53;;
15624;SDS011;7912;51.376;6.126;2022-10-19T02:42:43;5.20;;;4.67;;
15624;SDS011;7912;51.376;6.126;2022-10-19T02:45:28;5.70;;;4.90;;
15624;SDS011;7912;51.376;6.126;2022-10-19T02:48:04;7.80;;;4.83;;
15624;SDS011;7912;51.376;6.126;2022-10-19T02:50:42;8.73;;;5.63;;
15624;SDS011;7912;51.376;6.126;2022-10-19T02:53:11;7.93;;;5.63;;
15624;SDS011;7912;51.376;6.126;2022-10-19T02:55:40;5.47;;;4.97;;
15624;SDS011;7912;51.376;6.126;2022-10-19T02:58:08;9.30;;;5.77;;
15624;SDS011;7912;51.376;6.126;2022-10-19T03:00:35;10.17;;;6.13;;
15624;SDS011;7912;51.376;6.126;2022-10-19T03:03:03;7.40;;;4.80;;
15624;SDS011;7912;51.376;6.126;2022-10-19T03:05:30;9.37;;;5.53;;
15624;SDS011;7912;51.376;6.126;2022-10-19T03:07:57;7.00;;;5.40;;
15624;SDS011;7912;51.376;6.126;2022-10-19T03:10:24;9.20;;;6.03;;
15624;SDS011;7912;51.376;6.126;2022-10-19T03:12:52;9.10;;;6.10;;
15624;SDS011;7912;51.376;6.126;2022-10-19T03:15:19;8.63;;;5.70;;
15624;SDS011;7912;51.376;6.126;2022-10-19T03:17:51;6.83;;;5.03;;
15624;SDS011;7912;51.376;6.126;2022-10-19T03:20:19;7.80;;;5.47;;
15624;SDS011;7912;51.376;6.126;2022-10-19T03:22:46;7.90;;;5.03;;
15624;SDS011;7912;51.376;6.126;2022-10-19T03:25:14;6.57;;;5.00;;
15624;SDS011;7912;51.376;6.126;2022-10-19T03:27:41;6.50;;;4.90;;
15624;SDS011;7912;51.376;6.126;2022-10-19T03:30:09;7.20;;;5.33;;
15624;SDS011;7912;51.376;6.126;2022-10-19T03:32:37;6.67;;;4.73;;
15624;SDS011;7912;51.376;6.126;2022-10-19T03:35:04;6.50;;;5.20;;
15624;SDS011;7912;51.376;6.126;2022-10-19T03:37:32;8.33;;;5.37;;
15624;SDS011;7912;51.376;6.126;2022-10-19T03:40:00;6.30;;;5.70;;
15624;SDS011;7912;51.376;6.126;2022-10-19T03:42:28;8.80;;;6.33;;
15624;SDS011;7912;51.376;6.126;2022-10-19T03:44:55;6.63;;;5.90;;
15624;SDS011;7912;51.376;6.126;2022-10-19T03:47:23;7.10;;;5.50;;
15624;SDS011;7912;51.376;6.126;2022-10-19T03:49:50;8.77;;;5.67;;
15624;SDS011;7912;51.376;6.126;2022-10-19T03:52:18;7.37;;;6.07;;
15624;SDS011;7912;51.376;6.126;2022-10-19T03:54:48;7.40;;;6.37;;
15624;SDS011;7912;51.376;6.126;2022-10-19T03:57:16;7.47;;;5.90;;
15624;SDS011;7912;51.376;6.126;2022-10-19T03:59:44;7.83;;;6.10;;
15624;SDS011;7912;51.376;6.126;2022-10-19T04:02:11;6.83;;;5.80;;
15624;SDS011;7912;51.376;6.126;2022-10-19T04:04:39;10.43;;;6.87;;
15624;SDS011;7912;51.376;6.126;2022-10-19T04:07:06;7.97;;;6.60;;
15624;SDS011;7912;51.376;6.126;2022-10-19T04:09:33;11.90;;;6.43;;
15624;SDS011;7912;51.376;6.126;2022-10-19T04:12:01;9.33;;;6.37;;
15624;SDS011;7912;51.376;6.126;2022-10-19T04:14:29;14.07;;;7.40;;
15624;SDS011;7912;51.376;6.126;2022-10-19T04:17:04;9.77;;;6.67;;
15624;SDS011;7912;51.376;6.126;2022-10-19T04:19:32;8.90;;;6.17;;
15624;SDS011;7912;51.376;6.126;2022-10-19T04:21:59;11.20;;;6.87;;
15624;SDS011;7912;51.376;6.126;2022-10-19T04:24:26;10.13;;;6.30;;
15624;SDS011;7912;51.376;6.126;2022-10-19T04:26:54;11.50;;;6.90;;
15624;SDS011;7912;51.376;6.126;2022-10-19T04:29:23;9.40;;;6.60;;
15624;SDS011;7912;51.376;6.126;2022-10-19T04:31:55;8.23;;;6.30;;
15624;SDS011;7912;51.376;6.126;2022-10-19T04:34:24;8.73;;;6.23;;
15624;SDS011;7912;51.376;6.126;2022-10-19T04:36:51;10.83;;;6.33;;
15624;SDS011;7912;51.376;6.126;2022-10-19T04:39:19;7.67;;;6.50;;
15624;SDS011;7912;51.376;6.126;2022-10-19T04:41:47;8.03;;;6.40;;
15624;SDS011;7912;51.376;6.126;2022-10-19T04:44:15;8.80;;;6.10;;
15624;SDS011;7912;51.376;6.126;2022-10-19T04:46:43;7.80;;;5.93;;
15624;SDS011;7912;51.376;6.126;2022-10-19T04:57:00;7.13;;;5.20;;
15624;SDS011;7912;51.376;6.126;2022-10-19T04:59:27;10.00;;;5.83;;
15624;SDS011;7912;51.376;6.126;2022-10-19T05:01:55;5.97;;;4.90;;
15624;SDS011;7912;51.376;6.126;2022-10-19T05:04:22;8.30;;;5.90;;
15624;SDS011;7912;51.376;6.126;2022-10-19T05:06:50;8.83;;;5.43;;
15624;SDS011;7912;51.376;6.126;2022-10-19T05:09:17;6.47;;;5.87;;
15624;SDS011;7912;51.376;6.126;2022-10-19T05:11:47;8.33;;;5.23;;
15624;SDS011;7912;51.376;6.126;2022-10-19T05:14:16;8.33;;;5.30;;
15624;SDS011;7912;51.376;6.126;2022-10-19T05:16:43;8.07;;;5.60;;
15624;SDS011;7912;51.376;6.126;2022-10-19T05:19:14;6.47;;;5.20;;
15624;SDS011;7912;51.376;6.126;2022-10-19T05:21:41;10.13;;;6.27;;
15624;SDS011;7912;51.376;6.126;2022-10-19T05:24:10;10.13;;;6.20;;
15624;SDS011;7912;51.376;6.126;2022-10-19T05:26:38;8.67;;;5.97;;
15624;SDS011;7912;51.376;6.126;2022-10-19T05:29:09;8.87;;;5.57;;
15624;SDS011;7912;51.376;6.126;2022-10-19T05:31:38;8.43;;;6.77;;
15624;SDS011;7912;51.376;6.126;2022-10-19T05:34:06;7.70;;;5.67;;
15624;SDS011;7912;51.376;6.126;2022-10-19T05:36:34;7.27;;;5.73;;
15624;SDS011;7912;51.376;6.126;2022-10-19T05:39:05;9.70;;;6.03;;
15624;SDS011;7912;51.376;6.126;2022-10-19T05:41:43;9.67;;;5.97;;
15624;SDS011;7912;51.376;6.126;2022-10-19T05:44:13;7.87;;;5.63;;
15624;SDS011;7912;51.376;6.126;2022-10-19T05:46:43;10.50;;;6.27;;
15624;SDS011;7912;51.376;6.126;2022-10-19T05:49:11;7.70;;;5.20;;
15624;SDS011;7912;51.376;6.126;2022-10-19T05:51:40;9.97;;;5.47;;
15624;SDS011;7912;51.376;6.126;2022-10-19T05:54:09;7.23;;;5.70;;
15624;SDS011;7912;51.376;6.126;2022-10-19T05:56:38;9.30;;;5.23;;
15624;SDS011;7912;51.376;6.126;2022-10-19T05:59:14;9.60;;;5.30;;
15624;SDS011;7912;51.376;6.126;2022-10-19T06:01:46;9.23;;;5.30;;
15624;SDS011;7912;51.376;6.126;2022-10-19T06:04:14;8.70;;;5.53;;
15624;SDS011;7912;51.376;6.126;2022-10-19T06:10:42;7.37;;;5.43;;
15624;SDS011;7912;51.376;6.126;2022-10-19T06:13:11;9.77;;;5.93;;
15624;SDS011;7912;51.376;6.126;2022-10-19T06:19:15;7.83;;;5.50;;
15624;SDS011;7912;51.376;6.126;2022-10-19T06:21:43;11.33;;;6.40;;
15624;SDS011;7912;51.376;6.126;2022-10-19T06:27:18;9.50;;;6.27;;
15624;SDS011;7912;51.376;6.126;2022-10-19T06:29:45;10.53;;;6.30;;
15624;SDS011;7912;51.376;6.126;2022-10-19T06:32:14;11.60;;;7.00;;
15624;SDS011;7912;51.376;6.126;2022-10-19T06:37:30;9.03;;;5.73;;
15624;SDS011;7912;51.376;6.126;2022-10-19T06:39:59;10.03;;;6.30;;
15624;SDS011;7912;51.376;6.126;2022-10-19T06:42:32;9.90;;;6.63;;
15624;SDS011;7912;51.376;6.126;2022-10-19T06:48:55;12.57;;;7.17;;
15624;SDS011;7912;51.376;6.126;2022-10-19T06:51:27;8.17;;;6.40;;
15624;SDS011;7912;51.376;6.126;2022-10-19T06:53:57;10.70;;;7.40;;
15624;SDS011;7912;51.376;6.126;2022-10-19T06:56:25;9.93;;;6.70;;
15624;SDS011;7912;51.376;6.126;2022-10-19T06:58:53;10.63;;;6.57;;
15624;SDS011;7912;51.376;6.126;2022-10-19T07:01:21;12.27;;;7.80;;
15624;SDS011;7912;51.376;6.126;2022-10-19T07:03:50;10.40;;;7.27;;
15624;SDS011;7912;51.376;6.126;2022-10-19T07:06:18;10.47;;;7.13;;
15624;SDS011;7912;51.376;6.126;2022-10-19T07:08:48;9.70;;;6.93;;
15624;SDS011;7912;51.376;6.126;2022-10-19T07:11:17;12.50;;;7.60;;
15624;SDS011;7912;51.376;6.126;2022-10-19T07:13:48;12.00;;;7.87;;
15624;SDS011;7912;51.376;6.126;2022-10-19T07:16:19;16.83;;;8.47;;
15624;SDS011;7912;51.376;6.126;2022-10-19T07:22:32;12.13;;;6.73;;
15624;SDS011;7912;51.376;6.126;2022-10-19T07:24:59;11.00;;;7.47;;
15624;SDS011;7912;51.376;6.126;2022-10-19T07:27:26;14.00;;;7.70;;
15624;SDS011;7912;51.376;6.126;2022-10-19T07:30:00;11.13;;;7.50;;
15624;SDS011;7912;51.376;6.126;2022-10-19T07:32:27;9.67;;;6.40;;
15624;SDS011;7912;51.376;6.126;2022-10-19T07:34:55;13.13;;;6.80;;
15624;SDS011;7912;51.376;6.126;2022-10-19T07:37:23;11.87;;;7.23;;
15624;SDS011;7912;51.376;6.126;2022-10-19T07:39:51;12.37;;;7.03;;
15624;SDS011;7912;51.376;6.126;2022-10-19T07:42:19;11.73;;;6.53;;
15624;SDS011;7912;51.376;6.126;2022-10-19T07:44:47;11.77;;;6.20;;
15624;SDS011;7912;51.376;6.126;2022-10-19T07:47:25;11.83;;;6.80;;
15624;SDS011;7912;51.376;6.126;2022-10-19T07:49:52;13.50;;;6.70;;
15624;SDS011;7912;51.376;6.126;2022-10-19T07:52:20;10.83;;;6.83;;
15624;SDS011;7912;51.376;6.126;2022-10-19T07:54:47;12.50;;;7.00;;
15624;SDS011;7912;51.376;6.126;2022-10-19T07:57:16;11.37;;;7.33;;
15624;SDS011;7912;51.376;6.126;2022-10-19T07:59:45;11.17;;;6.83;;
15624;SDS011;7912;51.376;6.126;2022-10-19T08:02:13;13.10;;;7.57;;
15624;SDS011;7912;51.376;6.126;2022-10-19T08:04:42;11.60;;;7.40;;
15624;SDS011;7912;51.376;6.126;2022-10-19T08:07:28;11.90;;;7.30;;
15624;SDS011;7912;51.376;6.126;2022-10-19T08:09:58;10.23;;;7.27;;
15624;SDS011;7912;51.376;6.126;2022-10-19T08:12:29;12.33;;;7.20;;
15624;SDS011;7912;51.376;6.126;2022-10-19T08:15:03;11.77;;;7.10;;
15624;SDS011;7912;51.376;6.126;2022-10-19T08:17:34;11.97;;;6.57;;
15624;SDS011;7912;51.376;6.126;2022-10-19T08:20:05;11.20;;;7.13;;
15624;SDS011;7912;51.376;6.126;2022-10-19T08:22:34;8.80;;;6.40;;
15624;SDS011;7912;51.376;6.126;2022-10-19T08:25:03;11.33;;;7.70;;
15624;SDS011;7912;51.376;6.126;2022-10-19T08:27:32;12.63;;;7.70;;
15624;SDS011;7912;51.376;6.126;2022-10-19T08:30:00;12.90;;;7.83;;
15624;SDS011;7912;51.376;6.126;2022-10-19T08:35:38;12.70;;;7.97;;
15624;SDS011;7912;51.376;6.126;2022-10-19T08:38:06;13.73;;;7.97;;
15624;SDS011;7912;51.376;6.126;2022-10-19T08:40:34;13.23;;;7.73;;
15624;SDS011;7912;51.376;6.126;2022-10-19T08:43:11;13.53;;;8.43;;
15624;SDS011;7912;51.376;6.126;2022-10-19T08:49:02;10.47;;;8.10;;
15624;SDS011;7912;51.376;6.126;2022-10-19T08:51:31;10.73;;;7.87;;
15624;SDS011;7912;51.376;6.126;2022-10-19T08:54:07;13.40;;;8.73;;
15624;SDS011;7912;51.376;6.126;2022-10-19T08:56:47;13.47;;;8.17;;
15624;SDS011;7912;51.376;6.126;2022-10-19T09:00:02;12.93;;;7.63;;
15624;SDS011;7912;51.376;6.126;2022-10-19T09:03:14;13.67;;;7.60;;
15624;SDS011;7912;51.376;6.126;2022-10-19T09:06:17;11.43;;;7.07;;
15624;SDS011;7912;51.376;6.126;2022-10-19T09:09:13;12.07;;;7.03;;
15624;SDS011;7912;51.376;6.126;2022-10-19T09:11:46;11.87;;;7.17;;
15624;SDS011;7912;51.376;6.126;2022-10-19T09:14:32;11.00;;;6.90;;
15624;SDS011;7912;51.376;6.126;2022-10-19T09:17:10;7.73;;;6.30;;
15624;SDS011;7912;51.376;6.126;2022-10-19T09:19:43;11.77;;;6.80;;
15624;SDS011;7912;51.376;6.126;2022-10-19T09:22:15;14.30;;;6.80;;
15624;SDS011;7912;51.376;6.126;2022-10-19T09:24:51;10.90;;;6.80;;
15624;SDS011;7912;51.376;6.126;2022-10-19T09:27:47;8.13;;;6.13;;
15624;SDS011;7912;51.376;6.126;2022-10-19T09:30:27;9.80;;;6.13;;
15624;SDS011;7912;51.376;6.126;2022-10-19T09:33:00;10.80;;;6.27;;
15624;SDS011;7912;51.376;6.126;2022-10-19T09:35:37;9.90;;;6.23;;
15624;SDS011;7912;51.376;6.126;2022-10-19T09:38:11;12.47;;;6.53;;
15624;SDS011;7912;51.376;6.126;2022-10-19T09:40:45;10.27;;;5.47;;
15624;SDS011;7912;51.376;6.126;2022-10-19T09:43:12;11.27;;;5.67;;
15624;SDS011;7912;51.376;6.126;2022-10-19T09:48:52;6.07;;;5.00;;
15624;SDS011;7912;51.376;6.126;2022-10-19T09:51:19;8.70;;;4.83;;
15624;SDS011;7912;51.376;6.126;2022-10-19T09:53:51;9.27;;;4.93;;
15624;SDS011;7912;51.376;6.126;2022-10-19T09:56:24;9.37;;;5.17;;
15624;SDS011;7912;51.376;6.126;2022-10-19T09:58:57;6.20;;;4.63;;
15624;SDS011;7912;51.376;6.126;2022-10-19T10:04:15;6.70;;;4.33;;
15624;SDS011;7912;51.376;6.126;2022-10-19T10:06:45;10.40;;;4.80;;
15624;SDS011;7912;51.376;6.126;2022-10-19T10:09:16;8.23;;;5.13;;
15624;SDS011;7912;51.376;6.126;2022-10-19T10:11:49;8.20;;;5.43;;
15624;SDS011;7912;51.376;6.126;2022-10-19T10:16:55;6.83;;;4.33;;
15624;SDS011;7912;51.376;6.126;2022-10-19T10:19:34;10.07;;;4.40;;
15624;SDS011;7912;51.376;6.126;2022-10-19T10:22:03;8.20;;;4.27;;
15624;SDS011;7912;51.376;6.126;2022-10-19T10:24:32;7.37;;;4.40;;
15624;SDS011;7912;51.376;6.126;2022-10-19T10:27:02;5.90;;;3.90;;
15624;SDS011;7912;51.376;6.126;2022-10-19T10:29:33;6.97;;;3.60;;
15624;SDS011;7912;51.376;6.126;2022-10-19T10:32:10;5.30;;;3.47;;
15624;SDS011;7912;51.376;6.126;2022-10-19T10:34:55;7.10;;;3.20;;
15624;SDS011;7912;51.376;6.126;2022-10-19T10:37:33;4.77;;;3.03;;
15624;SDS011;7912;51.376;6.126;2022-10-19T10:40:15;6.00;;;3.00;;
15624;SDS011;7912;51.376;6.126;2022-10-19T10:42:57;5.53;;;3.03;;
15624;SDS011;7912;51.376;6.126;2022-10-19T10:45:41;5.83;;;2.60;;
15624;SDS011;7912;51.376;6.126;2022-10-19T10:51:17;3.40;;;2.43;;
15624;SDS011;7912;51.376;6.126;2022-10-19T10:54:10;5.10;;;2.30;;
15624;SDS011;7912;51.376;6.126;2022-10-19T10:59:40;3.70;;;2.40;;
15624;SDS011;7912;51.376;6.126;2022-10-19T11:02:38;4.40;;;2.53;;
15624;SDS011;7912;51.376;6.126;2022-10-19T11:10:58;4.17;;;2.40;;
15624;SDS011;7912;51.376;6.126;2022-10-19T11:13:36;4.33;;;2.30;;
15624;SDS011;7912;51.376;6.126;2022-10-19T11:16:30;5.67;;;3.10;;
15624;SDS011;7912;51.376;6.126;2022-10-19T11:19:19;5.40;;;2.63;;
15624;SDS011;7912;51.376;6.126;2022-10-19T11:34:20;6.03;;;2.60;;
15624;SDS011;7912;51.376;6.126;2022-10-19T11:37:29;5.10;;;2.30;;
15624;SDS011;7912;51.376;6.126;2022-10-19T11:49:20;5.73;;;2.63;;
15624;SDS011;7912;51.376;6.126;2022-10-19T11:55:20;5.23;;;2.47;;
15624;SDS011;7912;51.376;6.126;2022-10-19T11:58:28;4.97;;;2.47;;
15624;SDS011;7912;51.376;6.126;2022-10-19T12:03:46;5.93;;;2.40;;
15624;SDS011;7912;51.376;6.126;2022-10-19T12:06:43;3.20;;;1.93;;
15624;SDS011;7912;51.376;6.126;2022-10-19T12:15:04;3.67;;;2.10;;
15624;SDS011;7912;51.376;6.126;2022-10-19T12:17:54;6.60;;;2.40;;
15624;SDS011;7912;51.376;6.126;2022-10-19T12:20:49;3.73;;;1.80;;
15624;SDS011;7912;51.376;6.126;2022-10-19T12:26:08;5.47;;;2.30;;
15624;SDS011;7912;51.376;6.126;2022-10-19T12:28:42;6.07;;;2.50;;
15624;SDS011;7912;51.376;6.126;2022-10-19T12:31:22;2.60;;;1.93;;
15624;SDS011;7912;51.376;6.126;2022-10-19T12:34:09;6.57;;;2.27;;
15624;SDS011;7912;51.376;6.126;2022-10-19T12:43:11;4.93;;;2.30;;
15624;SDS011;7912;51.376;6.126;2022-10-19T12:48:33;6.33;;;2.30;;
15624;SDS011;7912;51.376;6.126;2022-10-19T12:51:03;4.53;;;1.90;;
15624;SDS011;7912;51.376;6.126;2022-10-19T12:53:44;5.07;;;2.30;;
15624;SDS011;7912;51.376;6.126;2022-10-19T12:56:32;4.83;;;2.60;;
15624;SDS011;7912;51.376;6.126;2022-10-19T12:59:21;5.03;;;2.40;;
15624;SDS011;7912;51.376;6.126;2022-10-19T13:01:52;5.13;;;2.50;;
15624;SDS011;7912;51.376;6.126;2022-10-19T13:04:23;5.27;;;2.33;;
15624;SDS011;7912;51.376;6.126;2022-10-19T13:14:59;5.30;;;2.27;;
15624;SDS011;7912;51.376;6.126;2022-10-19T13:22:40;3.77;;;1.97;;
15624;SDS011;7912;51.376;6.126;2022-10-19T13:38:41;4.07;;;2.00;;
15624;SDS011;7912;51.376;6.126;2022-10-19T13:41:21;5.67;;;2.00;;
15624;SDS011;7912;51.376;6.126;2022-10-19T13:55:48;2.60;;;1.80;;
15624;SDS011;7912;51.376;6.126;2022-10-19T14:01:48;4.57;;;2.33;;
15624;SDS011;7912;51.376;6.126;2022-10-19T14:04:52;3.43;;;2.37;;
15624;SDS011;7912;51.376;6.126;2022-10-19T14:10:21;4.57;;;2.40;;
15624;SDS011;7912;51.376;6.126;2022-10-19T14:12:58;5.03;;;2.30;;
15624;SDS011;7912;51.376;6.126;2022-10-19T14:15:30;3.53;;;2.50;;
15624;SDS011;7912;51.376;6.126;2022-10-19T14:18:00;6.07;;;2.27;;
15624;SDS011;7912;51.376;6.126;2022-10-19T14:20:32;3.50;;;2.10;;
15624;SDS011;7912;51.376;6.126;2022-10-19T14:28:30;4.50;;;2.27;;
15624;SDS011;7912;51.376;6.126;2022-10-19T14:30:59;4.63;;;2.20;;
15624;SDS011;7912;51.376;6.126;2022-10-19T14:33:39;5.43;;;2.63;;
15624;SDS011;7912;51.376;6.126;2022-10-19T14:36:13;5.63;;;2.80;;
15624;SDS011;7912;51.376;6.126;2022-10-19T14:38:45;4.07;;;2.50;;
15624;SDS011;7912;51.376;6.126;2022-10-19T14:41:39;3.83;;;2.20;;
15624;SDS011;7912;51.376;6.126;2022-10-19T14:47:19;6.17;;;2.40;;
15624;SDS011;7912;51.376;6.126;2022-10-19T14:49:52;4.83;;;2.40;;
15624;SDS011;7912;51.376;6.126;2022-10-19T14:52:22;3.57;;;1.97;;
15624;SDS011;7912;51.376;6.126;2022-10-19T14:54:59;4.83;;;2.20;;
15624;SDS011;7912;51.376;6.126;2022-10-19T14:57:42;3.33;;;2.20;;
15624;SDS011;7912;51.376;6.126;2022-10-19T15:00:19;4.17;;;2.10;;
15624;SDS011;7912;51.376;6.126;2022-10-19T15:02:59;5.50;;;2.50;;
15624;SDS011;7912;51.376;6.126;2022-10-19T15:05:35;4.17;;;2.13;;
15624;SDS011;7912;51.376;6.126;2022-10-19T15:08:19;4.90;;;1.80;;
15624;SDS011;7912;51.376;6.126;2022-10-19T15:14:24;3.00;;;1.80;;
15624;SDS011;7912;51.376;6.126;2022-10-19T15:17:00;5.27;;;2.20;;
15624;SDS011;7912;51.376;6.126;2022-10-19T15:24:59;4.03;;;1.90;;
15624;SDS011;7912;51.376;6.126;2022-10-19T15:27:37;4.33;;;2.20;;
15624;SDS011;7912;51.376;6.126;2022-10-19T15:32:45;4.97;;;2.40;;
15624;SDS011;7912;51.376;6.126;2022-10-19T15:35:31;4.43;;;2.20;;
15624;SDS011;7912;51.376;6.126;2022-10-19T15:38:22;5.57;;;2.23;;
15624;SDS011;7912;51.376;6.126;2022-10-19T15:41:13;3.30;;;2.10;;
15624;SDS011;7912;51.376;6.126;2022-10-19T15:47:18;5.13;;;2.10;;
15624;SDS011;7912;51.376;6.126;2022-10-19T15:49:51;5.33;;;1.83;;
15624;SDS011;7912;51.376;6.126;2022-10-19T15:52:28;7.10;;;2.10;;
15624;SDS011;7912;51.376;6.126;2022-10-19T15:54:59;4.63;;;2.30;;
15624;SDS011;7912;51.376;6.126;2022-10-19T15:57:37;4.73;;;2.20;;
15624;SDS011;7912;51.376;6.126;2022-10-19T16:00:10;5.33;;;2.10;;
15624;SDS011;7912;51.376;6.126;2022-10-19T16:02:43;6.27;;;2.13;;
15624;SDS011;7912;51.376;6.126;2022-10-19T16:05:11;5.60;;;2.40;;
15624;SDS011;7912;51.376;6.126;2022-10-19T16:07:39;6.00;;;2.50;;
15624;SDS011;7912;51.376;6.126;2022-10-19T16:10:10;4.77;;;2.67;;
15624;SDS011;7912;51.376;6.126;2022-10-19T16:12:47;5.23;;;2.40;;
15624;SDS011;7912;51.376;6.126;2022-10-19T16:15:20;6.90;;;2.60;;
15624;SDS011;7912;51.376;6.126;2022-10-19T16:17:50;5.20;;;2.70;;
15624;SDS011;7912;51.376;6.126;2022-10-19T16:20:26;4.47;;;2.67;;
15624;SDS011;7912;51.376;6.126;2022-10-19T16:22:55;4.67;;;2.60;;
15624;SDS011;7912;51.376;6.126;2022-10-19T16:25:23;4.10;;;3.60;;
15624;SDS011;7912;51.376;6.126;2022-10-19T16:27:51;5.00;;;3.33;;
15624;SDS011;7912;51.376;6.126;2022-10-19T16:30:18;4.43;;;2.80;;
15624;SDS011;7912;51.376;6.126;2022-10-19T16:32:46;4.20;;;2.43;;
15624;SDS011;7912;51.376;6.126;2022-10-19T16:35:15;6.67;;;3.00;;
15624;SDS011;7912;51.376;6.126;2022-10-19T16:37:42;5.50;;;3.60;;
15624;SDS011;7912;51.376;6.126;2022-10-19T16:40:10;5.47;;;3.00;;
15624;SDS011;7912;51.376;6.126;2022-10-19T16:42:38;5.70;;;3.37;;
15624;SDS011;7912;51.376;6.126;2022-10-19T16:45:06;8.53;;;3.33;;
15624;SDS011;7912;51.376;6.126;2022-10-19T16:47:34;5.60;;;3.20;;
15624;SDS011;7912;51.376;6.126;2022-10-19T16:50:03;5.63;;;3.33;;
15624;SDS011;7912;51.376;6.126;2022-10-19T16:52:33;6.87;;;3.67;;
15624;SDS011;7912;51.376;6.126;2022-10-19T16:55:01;6.53;;;3.60;;
15624;SDS011;7912;51.376;6.126;2022-10-19T16:57:29;5.63;;;3.70;;
15624;SDS011;7912;51.376;6.126;2022-10-19T16:59:56;7.40;;;3.73;;
15624;SDS011;7912;51.376;6.126;2022-10-19T17:02:24;5.40;;;3.57;;
15624;SDS011;7912;51.376;6.126;2022-10-19T17:04:52;5.90;;;3.47;;
15624;SDS011;7912;51.376;6.126;2022-10-19T17:07:19;6.73;;;3.60;;
15624;SDS011;7912;51.376;6.126;2022-10-19T17:09:48;5.27;;;3.20;;
15624;SDS011;7912;51.376;6.126;2022-10-19T17:12:20;4.33;;;3.17;;
15624;SDS011;7912;51.376;6.126;2022-10-19T17:14:47;6.97;;;3.33;;
15624;SDS011;7912;51.376;6.126;2022-10-19T17:17:16;4.77;;;3.50;;
15624;SDS011;7912;51.376;6.126;2022-10-19T17:19:44;6.17;;;3.60;;
15624;SDS011;7912;51.376;6.126;2022-10-19T17:22:11;7.00;;;3.33;;
15624;SDS011;7912;51.376;6.126;2022-10-19T17:24:38;4.13;;;3.37;;
15624;SDS011;7912;51.376;6.126;2022-10-19T17:27:07;5.37;;;3.50;;
15624;SDS011;7912;51.376;6.126;2022-10-19T17:29:35;5.97;;;3.57;;
15624;SDS011;7912;51.376;6.126;2022-10-19T17:32:02;6.80;;;3.23;;
15624;SDS011;7912;51.376;6.126;2022-10-19T17:34:30;10.07;;;4.20;;
15624;SDS011;7912;51.376;6.126;2022-10-19T17:36:58;4.83;;;3.43;;
15624;SDS011;7912;51.376;6.126;2022-10-19T17:39:25;6.03;;;3.70;;
15624;SDS011;7912;51.376;6.126;2022-10-19T17:41:55;6.43;;;3.80;;
15624;SDS011;7912;51.376;6.126;2022-10-19T17:44:27;6.30;;;3.57;;
15624;SDS011;7912;51.376;6.126;2022-10-19T17:46:57;5.80;;;3.37;;
15624;SDS011;7912;51.376;6.126;2022-10-19T17:49:26;4.40;;;3.43;;
15624;SDS011;7912;51.376;6.126;2022-10-19T17:51:55;5.80;;;3.67;;
15624;SDS011;7912;51.376;6.126;2022-10-19T17:54:23;6.10;;;3.70;;
15624;SDS011;7912;51.376;6.126;2022-10-19T17:56:51;5.70;;;3.30;;
15624;SDS011;7912;51.376;6.126;2022-10-19T17:59:18;4.70;;;3.63;;
15624;SDS011;7912;51.376;6.126;2022-10-19T18:02:00;5.37;;;3.60;;
15624;SDS011;7912;51.376;6.126;2022-10-19T18:04:28;7.50;;;3.90;;
15624;SDS011;7912;51.376;6.126;2022-10-19T18:06:56;5.83;;;3.83;;
15624;SDS011;7912;51.376;6.126;2022-10-19T18:09:23;6.37;;;3.50;;
15624;SDS011;7912;51.376;6.126;2022-10-19T18:11:51;4.60;;;3.00;;
15624;SDS011;7912;51.376;6.126;2022-10-19T18:14:19;6.43;;;3.47;;
15624;SDS011;7912;51.376;6.126;2022-10-19T18:16:46;6.30;;;3.50;;
15624;SDS011;7912;51.376;6.126;2022-10-19T18:19:14;6.63;;;3.63;;
15624;SDS011;7912;51.376;6.126;2022-10-19T18:21:43;5.17;;;3.30;;
15624;SDS011;7912;51.376;6.126;2022-10-19T18:24:13;5.83;;;3.20;;
15624;SDS011;7912;51.376;6.126;2022-10-19T18:26:46;6.30;;;3.47;;
15624;SDS011;7912;51.376;6.126;2022-10-19T18:29:20;5.87;;;3.23;;
15624;SDS011;7912;51.376;6.126;2022-10-19T18:31:50;7.07;;;3.40;;
15624;SDS011;7912;51.376;6.126;2022-10-19T18:34:19;5.67;;;3.30;;
15624;SDS011;7912;51.376;6.126;2022-10-19T18:36:49;3.87;;;2.90;;
15624;SDS011;7912;51.376;6.126;2022-10-19T18:39:18;6.03;;;3.20;;